createdAt,value
2019-01-24T00:01:10.617Z,24.07
2019-01-24T00:03:39.274Z,24.70
2019-01-24T00:06:07.640Z,27.73
2019-01-24T00:08:35.954Z,26.33
2019-01-24T00:11:04.663Z,25.50
2019-01-24T00:13:33.252Z,25.13
2019-01-24T00:16:01.773Z,27.13
2019-01-24T00:18:30.402Z,30.33
2019-01-24T00:20:58.748Z,23.93
2019-01-24T00:23:27.115Z,33.00
2019-01-24T00:25:55.487Z,20.37
2019-01-24T00:28:23.988Z,28.33
2019-01-24T00:30:52.646Z,22.30
2019-01-24T00:33:20.962Z,25.97
2019-01-24T00:35:49.419Z,28.00
2019-01-24T00:38:18.239Z,30.77
2019-01-24T00:40:46.827Z,23.23
2019-01-24T00:43:15.158Z,25.07
2019-01-24T00:45:43.886Z,22.33
2019-01-24T00:48:12.442Z,22.10
2019-01-24T00:50:40.766Z,25.27
2019-01-24T00:53:09.140Z,29.30
2019-01-24T00:55:37.648Z,23.53
2019-01-24T00:58:05.979Z,21.97
2019-01-24T01:00:34.456Z,25.60
2019-01-24T01:03:02.837Z,26.27
2019-01-24T01:05:31.523Z,23.90
2019-01-24T01:08:00.206Z,26.03
2019-01-24T01:10:29.039Z,23.30
2019-01-24T01:12:57.355Z,22.17
2019-01-24T01:15:25.758Z,23.00
2019-01-24T01:17:54.072Z,25.27
2019-01-24T01:20:23.271Z,23.43
2019-01-24T01:22:52.009Z,29.87
2019-01-24T01:25:20.362Z,32.10
2019-01-24T01:27:48.776Z,20.57
2019-01-24T01:30:20.175Z,30.30
2019-01-24T01:32:48.840Z,21.23
2019-01-24T01:35:17.268Z,31.33
2019-01-24T01:37:45.653Z,28.30
2019-01-24T01:40:14.881Z,21.07
2019-01-24T01:42:43.330Z,20.40
2019-01-24T01:45:14.028Z,29.57
2019-01-24T01:47:42.542Z,23.23
2019-01-24T01:50:13.802Z,27.77
2019-01-24T01:52:42.368Z,21.57
2019-01-24T01:55:10.721Z,21.30
2019-01-24T01:57:39.095Z,22.43
2019-01-24T02:00:09.477Z,30.80
2019-01-24T02:02:38.031Z,27.10
2019-01-24T02:05:07.332Z,28.10
2019-01-24T02:07:36.013Z,22.07
2019-01-24T02:10:05.759Z,21.77
2019-01-24T02:12:34.132Z,21.33
2019-01-24T02:15:02.665Z,20.87
2019-01-24T02:17:31.063Z,28.80
2019-01-24T02:19:59.697Z,32.10
2019-01-24T02:22:28.025Z,22.40
2019-01-24T02:24:56.414Z,29.43
2019-01-24T02:27:25.140Z,22.70
2019-01-24T02:29:53.513Z,19.40
2019-01-24T02:32:21.973Z,25.90
2019-01-24T02:34:50.326Z,24.67
2019-01-24T02:37:18.644Z,26.37
2019-01-24T02:39:47.257Z,26.70
2019-01-24T02:42:15.620Z,28.10
2019-01-24T02:44:43.951Z,29.60
2019-01-24T02:47:12.661Z,23.37
2019-01-24T02:49:40.966Z,18.80
2019-01-24T02:52:09.735Z,21.43
2019-01-24T02:54:38.080Z,24.57
2019-01-24T02:57:06.637Z,26.03
2019-01-24T02:59:35.031Z,26.63
2019-01-24T03:02:03.648Z,23.93
2019-01-24T03:04:32.087Z,23.37
2019-01-24T03:07:00.666Z,24.37
2019-01-24T03:09:29.036Z,23.70
2019-01-24T03:11:57.697Z,30.10
2019-01-24T03:14:26.186Z,24.50
2019-01-24T03:16:54.889Z,24.60
2019-01-24T03:19:23.517Z,20.53
2019-01-24T03:21:51.893Z,23.80
2019-01-24T03:24:20.279Z,26.03
2019-01-24T03:26:48.674Z,30.40
2019-01-24T03:29:16.967Z,26.10
2019-01-24T03:31:45.295Z,25.43
2019-01-24T03:34:14.144Z,29.10
2019-01-24T03:36:42.670Z,29.93
2019-01-24T03:39:10.974Z,30.87
2019-01-24T03:41:39.451Z,26.73
2019-01-24T03:44:08.207Z,33.43
2019-01-24T03:46:36.647Z,28.33
2019-01-24T03:49:05.085Z,32.23
2019-01-24T03:51:33.508Z,28.90
2019-01-24T03:54:02.395Z,30.83
2019-01-24T03:56:30.800Z,29.37
2019-01-24T03:58:59.147Z,33.47
2019-01-24T04:01:27.651Z,28.77
2019-01-24T04:03:56.001Z,31.73
2019-01-24T04:06:24.470Z,27.13
2019-01-24T04:08:52.970Z,29.05
2019-01-24T04:11:21.309Z,32.90
2019-01-24T04:13:50.031Z,31.65
2019-01-24T04:16:18.410Z,22.63
2019-01-24T04:18:46.745Z,27.67
2019-01-24T04:21:15.694Z,27.13
2019-01-24T04:23:44.156Z,27.50
2019-01-24T04:26:12.629Z,27.67
2019-01-24T04:28:40.956Z,30.30
2019-01-24T04:31:09.298Z,26.30
2019-01-24T04:33:37.873Z,26.43
2019-01-24T04:36:06.348Z,25.62
2019-01-24T04:38:34.972Z,27.73
2019-01-24T04:41:03.531Z,26.73
2019-01-24T04:43:32.061Z,23.30
2019-01-24T04:46:00.472Z,32.90
2019-01-24T04:48:28.981Z,26.73
2019-01-24T04:50:57.533Z,26.03
2019-01-24T04:53:25.909Z,31.23
2019-01-24T04:55:54.759Z,28.60
2019-01-24T04:58:23.283Z,35.63
2019-01-24T05:00:51.661Z,29.70
2019-01-24T05:03:20.318Z,25.43
2019-01-24T05:05:48.649Z,32.77
2019-01-24T05:08:17.405Z,29.57
2019-01-24T05:10:45.765Z,35.93
2019-01-24T05:13:14.167Z,38.00
2019-01-24T05:15:42.848Z,28.50
2019-01-24T05:18:11.204Z,25.20
2019-01-24T05:20:39.522Z,35.50
2019-01-24T05:23:07.846Z,36.70
2019-01-24T05:25:36.317Z,29.10
2019-01-24T05:28:04.706Z,35.43
2019-01-24T05:30:33.062Z,24.20
2019-01-24T05:33:01.489Z,30.10
2019-01-24T05:35:34.667Z,31.90
2019-01-24T05:37:58.247Z,36.40
2019-01-24T05:40:26.980Z,33.70
2019-01-24T05:42:55.332Z,32.77
2019-01-24T05:45:23.852Z,28.50
2019-01-24T05:47:52.367Z,34.07
2019-01-24T05:50:20.693Z,39.57
2019-01-24T05:52:49.400Z,29.60
2019-01-24T05:55:18.370Z,26.50
2019-01-24T05:57:47.092Z,35.87
2019-01-24T06:00:20.412Z,33.03
2019-01-24T06:02:48.742Z,32.83
2019-01-24T06:05:17.391Z,38.57
2019-01-24T06:07:45.810Z,37.77
2019-01-24T06:10:14.480Z,36.10
2019-01-24T06:12:42.872Z,37.43
2019-01-24T06:15:13.158Z,34.30
2019-01-24T06:17:41.464Z,40.77
2019-01-24T06:20:10.235Z,36.87
2019-01-24T06:22:38.831Z,37.63
2019-01-24T06:25:07.615Z,33.20
2019-01-24T06:27:36.241Z,38.80
2019-01-24T06:30:06.176Z,42.33
2019-01-24T06:32:34.805Z,36.53
2019-01-24T06:35:03.778Z,43.43
2019-01-24T06:37:32.127Z,37.93
2019-01-24T06:40:00.865Z,35.77
2019-01-24T06:42:29.241Z,35.48
2019-01-24T06:44:57.749Z,30.27
2019-01-24T06:47:26.331Z,29.03
2019-01-24T06:49:54.709Z,40.00
2019-01-24T06:52:23.052Z,39.87
2019-01-24T06:54:51.471Z,37.10
2019-01-24T06:57:20.090Z,38.67
2019-01-24T06:59:48.835Z,42.90
2019-01-24T07:02:17.168Z,37.37
2019-01-24T07:04:45.573Z,48.17
2019-01-24T07:07:13.971Z,47.03
2019-01-24T07:09:42.292Z,44.50
2019-01-24T07:12:10.640Z,35.00
2019-01-24T07:14:38.947Z,31.23
2019-01-24T07:17:07.304Z,40.33
2019-01-24T07:19:35.735Z,44.10
2019-01-24T07:22:04.045Z,37.57
2019-01-24T07:24:32.343Z,40.90
2019-01-24T07:27:00.746Z,38.30
2019-01-24T07:29:29.370Z,35.50
2019-01-24T07:31:57.886Z,41.23
2019-01-24T07:34:26.305Z,50.70
2019-01-24T07:36:54.785Z,47.53
2019-01-24T07:39:23.174Z,34.83
2019-01-24T07:41:51.554Z,42.17
2019-01-24T07:44:20.072Z,37.50
2019-01-24T07:46:48.420Z,34.10
2019-01-24T07:49:16.838Z,37.60
2019-01-24T07:51:45.200Z,49.80
2019-01-24T07:54:13.566Z,55.50
2019-01-24T07:56:42.312Z,41.40
2019-01-24T07:59:10.742Z,39.63
2019-01-24T08:01:39.506Z,45.23
2019-01-24T08:04:08.203Z,42.93
2019-01-24T08:06:36.668Z,34.73
2019-01-24T08:09:05.865Z,40.67
2019-01-24T08:11:34.174Z,36.73
2019-01-24T08:14:02.501Z,38.87
2019-01-24T08:16:30.890Z,40.30
2019-01-24T08:19:00.316Z,37.63
2019-01-24T08:21:29.001Z,43.27
2019-01-24T08:23:57.362Z,33.73
2019-01-24T08:26:25.710Z,44.67
2019-01-24T08:28:54.422Z,39.90
2019-01-24T08:31:22.822Z,45.57
2019-01-24T08:33:51.124Z,34.57
2019-01-24T08:36:19.555Z,41.77
2019-01-24T08:38:47.932Z,41.17
2019-01-24T08:41:16.300Z,46.50
2019-01-24T08:43:44.638Z,36.33
2019-01-24T08:46:12.977Z,41.27
2019-01-24T08:48:41.323Z,42.57
2019-01-24T08:51:09.700Z,45.37
2019-01-24T08:53:38.055Z,43.17
2019-01-24T08:56:06.367Z,42.70
2019-01-24T08:58:34.698Z,45.37
2019-01-24T09:01:03.053Z,46.33
2019-01-24T09:03:31.585Z,39.50
2019-01-24T09:06:00.245Z,37.43
2019-01-24T09:08:28.695Z,41.73
2019-01-24T09:10:57.155Z,47.77
2019-01-24T09:13:26.106Z,34.30
2019-01-24T09:15:54.697Z,45.83
2019-01-24T09:18:23.017Z,48.43
2019-01-24T09:20:51.689Z,46.17
2019-01-24T09:23:20.033Z,44.67
2019-01-24T09:25:48.350Z,48.43
2019-01-24T09:28:16.719Z,50.07
2019-01-24T09:30:45.041Z,50.10
2019-01-24T09:33:13.354Z,49.53
2019-01-24T09:35:41.672Z,51.53
2019-01-24T09:38:10.016Z,52.30
2019-01-24T09:40:38.570Z,54.87
2019-01-24T09:43:06.981Z,45.83
2019-01-24T09:45:35.752Z,48.47
2019-01-24T09:48:04.640Z,46.07
2019-01-24T09:50:33.033Z,39.83
2019-01-24T09:53:01.341Z,43.47
2019-01-24T09:55:29.670Z,41.33
2019-01-24T09:57:58.283Z,56.50
2019-01-24T10:00:29.645Z,49.73
2019-01-24T10:02:58.301Z,48.27
2019-01-24T10:05:27.294Z,44.17
2019-01-24T10:07:55.852Z,42.87
2019-01-24T10:10:24.806Z,47.07
2019-01-24T10:12:54.210Z,48.27
2019-01-24T10:15:22.683Z,44.70
2019-01-24T10:17:51.024Z,48.77
2019-01-24T10:20:20.879Z,44.93
2019-01-24T10:22:49.263Z,52.50
2019-01-24T10:25:20.405Z,54.17
2019-01-24T10:27:48.739Z,40.13
2019-01-24T10:30:18.744Z,44.67
2019-01-24T10:32:47.068Z,46.50
2019-01-24T10:35:15.409Z,43.70
2019-01-24T10:37:43.755Z,56.37
2019-01-24T10:40:15.669Z,45.03
2019-01-24T10:42:44.322Z,52.83
2019-01-24T10:45:13.909Z,49.13
2019-01-24T10:47:42.271Z,49.43
2019-01-24T10:50:11.854Z,54.93
2019-01-24T10:52:40.414Z,52.67
2019-01-24T10:55:13.704Z,47.00
2019-01-24T10:57:38.690Z,49.00
2019-01-24T11:00:10.953Z,46.47
2019-01-24T11:02:39.325Z,44.00
2019-01-24T11:05:09.172Z,54.17
2019-01-24T11:07:37.805Z,52.80
2019-01-24T11:10:06.414Z,49.37
2019-01-24T11:12:34.990Z,52.17
2019-01-24T11:15:03.356Z,45.07
2019-01-24T11:17:31.676Z,51.33
2019-01-24T11:20:00.184Z,57.33
2019-01-24T11:22:28.574Z,49.33
2019-01-24T11:24:56.870Z,43.37
2019-01-24T11:27:25.563Z,52.53
2019-01-24T11:29:54.166Z,48.87
2019-01-24T11:32:22.625Z,49.50
2019-01-24T11:34:50.981Z,46.20
2019-01-24T11:37:19.311Z,53.07
2019-01-24T11:39:47.638Z,54.50
2019-01-24T11:42:16.133Z,56.63
2019-01-24T11:44:44.442Z,55.37
2019-01-24T11:47:13.200Z,49.40
2019-01-24T11:49:41.587Z,47.30
2019-01-24T11:52:09.892Z,56.97
2019-01-24T11:54:38.334Z,47.10
2019-01-24T11:57:06.938Z,55.50
2019-01-24T11:59:35.313Z,52.43
2019-01-24T12:02:03.708Z,64.67
2019-01-24T12:04:32.258Z,55.43
2019-01-24T12:07:04.181Z,48.03
2019-01-24T12:09:29.375Z,49.73
2019-01-24T12:11:58.017Z,50.80
2019-01-24T12:14:26.374Z,46.87
2019-01-24T12:16:54.827Z,44.13
2019-01-24T12:19:23.218Z,47.47
2019-01-24T12:21:51.589Z,43.60
2019-01-24T12:24:20.095Z,49.83
2019-01-24T12:26:48.773Z,46.87
2019-01-24T12:29:17.069Z,47.53
2019-01-24T12:31:45.775Z,56.33
2019-01-24T12:34:14.217Z,48.37
2019-01-24T12:36:42.953Z,54.50
2019-01-24T12:39:11.489Z,48.77
2019-01-24T12:41:39.963Z,49.67
2019-01-24T12:44:08.318Z,45.37
2019-01-24T12:46:36.720Z,55.47
2019-01-24T12:49:05.212Z,54.63
2019-01-24T12:51:33.599Z,44.37
2019-01-24T12:54:02.139Z,47.33
2019-01-24T12:56:30.725Z,50.10
2019-01-24T12:58:59.807Z,43.23
2019-01-24T13:01:28.212Z,52.27
2019-01-24T13:03:56.846Z,48.17
2019-01-24T13:06:25.273Z,45.10
2019-01-24T13:08:53.617Z,54.17
2019-01-24T13:11:22.205Z,46.53
2019-01-24T13:13:50.525Z,43.80
2019-01-24T13:16:19.103Z,53.00
2019-01-24T13:18:47.572Z,69.20
2019-01-24T13:21:16.151Z,53.50
2019-01-24T13:23:44.511Z,57.43
2019-01-24T13:26:12.908Z,46.33
2019-01-24T13:28:41.273Z,53.30
2019-01-24T13:31:09.870Z,48.83
2019-01-24T13:33:38.471Z,47.27
2019-01-24T13:36:07.238Z,52.63
2019-01-24T13:38:35.564Z,57.27
2019-01-24T13:41:03.975Z,62.70
2019-01-24T13:43:32.676Z,60.83
2019-01-24T13:46:01.072Z,61.30
2019-01-24T13:48:29.395Z,62.33
2019-01-24T13:50:57.905Z,57.17
2019-01-24T13:53:26.318Z,63.30
2019-01-24T13:55:54.706Z,54.70
2019-01-24T13:58:23.077Z,64.47
2019-01-24T14:00:51.364Z,55.83
2019-01-24T14:03:33.668Z,55.57
2019-01-24T14:06:02.144Z,50.80
2019-01-24T14:08:30.594Z,67.70
2019-01-24T14:10:59.010Z,53.37
2019-01-24T14:13:27.753Z,61.63
2019-01-24T14:15:56.040Z,48.27
2019-01-24T14:18:24.357Z,66.53
2019-01-24T14:20:52.879Z,54.40
2019-01-24T14:23:21.382Z,52.53
2019-01-24T14:25:49.717Z,60.90
2019-01-24T14:28:18.323Z,51.27
2019-01-24T14:30:46.730Z,56.87
2019-01-24T14:33:15.310Z,49.33
2019-01-24T14:35:44.100Z,58.10
2019-01-24T14:38:12.567Z,43.80
2019-01-24T14:40:40.906Z,56.37
2019-01-24T14:43:09.254Z,49.53
2019-01-24T14:45:37.599Z,54.50
2019-01-24T14:48:06.557Z,62.80
2019-01-24T14:50:34.933Z,58.50
2019-01-24T14:53:03.327Z,47.00
2019-01-24T14:55:31.662Z,48.87
2019-01-24T14:58:00.076Z,54.93
2019-01-24T15:00:34.087Z,58.83
2019-01-24T15:03:02.674Z,50.87
2019-01-24T15:05:31.464Z,50.00
2019-01-24T15:07:59.794Z,58.97
2019-01-24T15:10:28.202Z,51.63
2019-01-24T15:12:56.611Z,53.40
2019-01-24T15:15:25.344Z,47.87
2019-01-24T15:17:53.676Z,58.83
2019-01-24T15:20:22.027Z,51.00
2019-01-24T15:22:50.403Z,55.33
2019-01-24T15:25:18.970Z,58.90
2019-01-24T15:27:47.341Z,53.07
2019-01-24T15:30:19.084Z,50.20
2019-01-24T15:32:47.419Z,44.23
2019-01-24T15:35:15.806Z,48.40
2019-01-24T15:37:44.258Z,63.13
2019-01-24T15:40:15.688Z,49.67
2019-01-24T15:42:44.050Z,49.20
2019-01-24T15:45:12.684Z,49.53
2019-01-24T15:47:41.150Z,57.83
2019-01-24T15:50:11.425Z,61.60
2019-01-24T15:52:39.820Z,55.63
2019-01-24T15:55:08.299Z,55.70
2019-01-24T15:57:36.823Z,52.03
2019-01-24T16:00:07.808Z,50.33
2019-01-24T16:02:36.480Z,54.40
2019-01-24T16:05:05.478Z,47.20
2019-01-24T16:07:34.129Z,47.60
2019-01-24T16:10:02.660Z,55.70
2019-01-24T16:12:31.387Z,46.90
2019-01-24T16:14:59.726Z,48.53
2019-01-24T16:17:28.444Z,44.83
2019-01-24T16:19:56.824Z,46.17
2019-01-24T16:22:25.121Z,56.23
2019-01-24T16:24:53.571Z,52.60
2019-01-24T16:27:22.442Z,51.10
2019-01-24T16:29:50.835Z,42.37
2019-01-24T16:32:19.279Z,53.80
2019-01-24T16:34:47.631Z,59.83
2019-01-24T16:37:15.978Z,45.03
2019-01-24T16:39:44.624Z,47.30
2019-01-24T16:42:13.743Z,47.33
2019-01-24T16:44:42.437Z,49.07
2019-01-24T16:47:11.087Z,49.07
2019-01-24T16:49:39.818Z,39.87
2019-01-24T16:52:08.151Z,51.53
2019-01-24T16:54:36.559Z,49.97
2019-01-24T16:57:05.015Z,48.00
2019-01-24T16:59:33.615Z,54.27
2019-01-24T17:02:01.956Z,50.57
2019-01-24T17:04:30.374Z,54.20
2019-01-24T17:06:59.015Z,48.37
2019-01-24T17:09:27.353Z,52.90
2019-01-24T17:11:55.731Z,50.03
2019-01-24T17:14:24.194Z,56.87
2019-01-24T17:16:52.535Z,58.77
2019-01-24T17:19:21.114Z,45.70
2019-01-24T17:21:49.581Z,46.83
2019-01-24T17:24:17.909Z,56.17
2019-01-24T17:26:46.238Z,54.13
2019-01-24T17:29:14.769Z,42.43
2019-01-24T17:31:43.147Z,53.90
2019-01-24T17:34:11.832Z,44.17
2019-01-24T17:36:40.176Z,46.97
2019-01-24T17:39:11.012Z,48.17
2019-01-24T17:41:39.366Z,49.13
2019-01-24T17:44:07.771Z,49.30
2019-01-24T17:46:36.116Z,41.23
2019-01-24T17:49:04.521Z,47.43
2019-01-24T17:51:33.175Z,52.67
2019-01-24T17:54:01.785Z,52.40
2019-01-24T17:56:30.098Z,62.87
2019-01-24T17:58:58.644Z,48.70
2019-01-24T18:01:27.057Z,48.50
2019-01-24T18:03:55.678Z,47.53
2019-01-24T18:06:24.146Z,42.27
2019-01-24T18:08:53.898Z,47.90
2019-01-24T18:11:20.994Z,46.73
2019-01-24T18:13:49.316Z,49.53
2019-01-24T18:16:17.988Z,46.77
2019-01-24T18:18:46.317Z,48.03
2019-01-24T18:21:15.612Z,53.40
2019-01-24T18:23:43.944Z,59.87
2019-01-24T18:26:12.267Z,43.20
2019-01-24T18:28:40.748Z,58.70
2019-01-24T18:31:09.194Z,49.70
2019-01-24T18:33:37.605Z,53.00
2019-01-24T18:36:06.180Z,53.17
2019-01-24T18:38:38.498Z,56.43
2019-01-24T18:41:08.618Z,46.20
2019-01-24T18:43:31.464Z,51.97
2019-01-24T18:46:01.205Z,56.07
2019-01-24T18:48:29.651Z,52.43
2019-01-24T18:50:58.046Z,49.53
2019-01-24T18:53:26.555Z,53.73
2019-01-24T18:55:54.929Z,45.57
2019-01-24T18:58:23.394Z,51.53
2019-01-24T19:00:51.856Z,43.90
2019-01-24T19:03:20.491Z,47.23
2019-01-24T19:05:49.049Z,60.57
2019-01-24T19:08:17.380Z,59.87
2019-01-24T19:10:45.745Z,62.57
2019-01-24T19:13:14.216Z,65.00
2019-01-24T19:15:44.534Z,51.17
2019-01-24T19:18:13.917Z,52.87
2019-01-24T19:20:42.485Z,60.00
2019-01-24T19:23:11.066Z,50.67
2019-01-24T19:25:39.574Z,48.17
2019-01-24T19:28:09.923Z,52.93
2019-01-24T19:30:38.483Z,48.47
2019-01-24T19:33:07.107Z,50.10
2019-01-24T19:35:35.429Z,48.73
2019-01-24T19:38:03.788Z,54.20
2019-01-24T19:40:32.333Z,41.73
2019-01-24T19:43:00.808Z,42.83
2019-01-24T19:45:29.112Z,44.10
2019-01-24T19:47:57.498Z,43.23
2019-01-24T19:50:27.118Z,49.37
2019-01-24T19:52:55.483Z,54.93
2019-01-24T19:55:24.273Z,47.50
2019-01-24T19:57:53.341Z,48.17
2019-01-24T20:00:24.765Z,45.23
2019-01-24T20:02:53.168Z,55.17
2019-01-24T20:05:21.577Z,44.60
2019-01-24T20:07:49.956Z,47.90
2019-01-24T20:10:20.264Z,43.03
2019-01-24T20:12:48.690Z,50.90
2019-01-24T20:15:20.240Z,47.83
2019-01-24T20:17:49.644Z,54.23
2019-01-24T20:20:17.354Z,47.73
2019-01-24T20:22:45.744Z,48.23
2019-01-24T20:25:16.150Z,55.70
2019-01-24T20:27:45.040Z,41.13
2019-01-24T20:30:17.145Z,47.70
2019-01-24T20:32:45.736Z,49.03
2019-01-24T20:35:18.129Z,44.00
2019-01-24T20:37:46.506Z,40.37
2019-01-24T20:40:15.016Z,41.73
2019-01-24T20:42:43.502Z,64.07
2019-01-24T20:45:11.927Z,74.03
2019-01-24T20:47:40.314Z,60.57
2019-01-24T20:50:10.285Z,59.23
2019-01-24T20:52:38.625Z,58.67
2019-01-24T20:55:07.870Z,61.07
2019-01-24T20:57:36.952Z,50.43
2019-01-24T21:00:08.931Z,48.67
2019-01-24T21:02:37.299Z,53.47
2019-01-24T21:05:06.251Z,48.53
2019-01-24T21:07:34.828Z,40.73
2019-01-24T21:10:03.279Z,53.13
2019-01-24T21:12:31.988Z,63.03
2019-01-24T21:15:00.349Z,58.30
2019-01-24T21:17:28.999Z,52.40
2019-01-24T21:19:57.345Z,50.73
2019-01-24T21:22:25.694Z,43.23
2019-01-24T21:24:54.054Z,59.93
2019-01-24T21:27:23.128Z,49.80
2019-01-24T21:29:51.449Z,62.60
2019-01-24T21:32:19.762Z,51.07
2019-01-24T21:34:48.159Z,60.33
2019-01-24T21:37:16.542Z,70.37
2019-01-24T21:39:44.890Z,55.03
2019-01-24T21:42:13.235Z,56.40
2019-01-24T21:44:41.561Z,56.90
2019-01-24T21:47:10.112Z,55.30
2019-01-24T21:49:38.651Z,55.00
2019-01-24T21:52:07.251Z,56.00
2019-01-24T21:54:35.627Z,76.07
2019-01-24T21:57:04.007Z,63.90
2019-01-24T21:59:32.634Z,56.73
2019-01-24T22:02:01.050Z,57.63
2019-01-24T22:04:29.391Z,69.83
2019-01-24T22:06:57.789Z,58.40
2019-01-24T22:09:29.275Z,62.07
2019-01-24T22:11:54.626Z,63.70
2019-01-24T22:14:22.986Z,61.83
2019-01-24T22:16:51.373Z,67.47
2019-01-24T22:19:19.980Z,67.13
2019-01-24T22:21:48.332Z,75.37
2019-01-24T22:24:16.700Z,93.57
2019-01-24T22:26:45.061Z,111.67
2019-01-24T22:29:13.536Z,132.47
2019-01-24T22:31:41.989Z,165.90
2019-01-24T22:34:10.353Z,141.87
2019-01-24T22:36:38.932Z,200.10
2019-01-24T22:39:09.398Z,166.53
2019-01-24T22:41:37.719Z,196.83
2019-01-24T22:44:06.115Z,212.83
2019-01-24T22:46:34.457Z,195.37
2019-01-24T22:49:02.829Z,237.70
2019-01-24T22:51:31.172Z,226.77
2019-01-24T22:53:59.504Z,259.50
2019-01-24T22:56:35.229Z,221.10
2019-01-24T22:58:56.397Z,265.40
2019-01-24T23:01:33.749Z,259.27
2019-01-24T23:04:08.292Z,192.43
2019-01-24T23:06:36.728Z,214.77
2019-01-24T23:09:08.513Z,231.53
2019-01-24T23:11:37.554Z,336.50
2019-01-24T23:14:06.173Z,226.53
2019-01-24T23:16:34.505Z,223.10
2019-01-24T23:19:03.126Z,260.67
2019-01-24T23:21:31.452Z,319.33
2019-01-24T23:23:59.794Z,264.20
2019-01-24T23:26:28.136Z,238.63
2019-01-24T23:28:56.622Z,259.10
2019-01-24T23:31:24.953Z,258.70
2019-01-24T23:33:53.770Z,264.10
2019-01-24T23:36:22.429Z,317.23
2019-01-24T23:38:50.788Z,294.87
2019-01-24T23:41:19.142Z,209.83
2019-01-24T23:43:47.750Z,244.50
2019-01-24T23:46:16.183Z,286.77
2019-01-24T23:48:44.636Z,294.70
2019-01-24T23:51:12.992Z,356.83
2019-01-24T23:53:41.287Z,191.97
2019-01-24T23:56:09.613Z,210.17
2019-01-24T23:58:37.949Z,336.23
